sensor_id;sensor_type;location;lat;lon;timestamp;P1;durP1;ratioP1;P2;durP2;ratioP2
33740;SDS011;20065;48.380;10.892;2023-03-16T00:00:02;12.95;;;8.65;;
33740;SDS011;20065;48.380;10.892;2023-03-16T00:02:53;12.90;;;8.05;;
33740;SDS011;20065;48.380;10.892;2023-03-16T00:05:40;12.57;;;8.00;;
33740;SDS011;20065;48.380;10.892;2023-03-16T00:08:26;9.25;;;6.97;;
33740;SDS011;20065;48.380;10.892;2023-03-16T00:11:15;10.60;;;7.10;;
33740;SDS011;20065;48.380;10.892;2023-03-16T00:14:01;12.02;;;8.40;;
33740;SDS011;20065;48.380;10.892;2023-03-16T00:16:48;10.13;;;6.70;;
33740;SDS011;20065;48.380;10.892;2023-03-16T00:19:34;12.10;;;7.28;;
33740;SDS011;20065;48.380;10.892;2023-03-16T00:22:21;12.23;;;7.28;;
33740;SDS011;20065;48.380;10.892;2023-03-16T00:25:13;10.98;;;7.18;;
33740;SDS011;20065;48.380;10.892;2023-03-16T00:27:59;11.88;;;8.00;;
33740;SDS011;20065;48.380;10.892;2023-03-16T00:30:48;15.13;;;8.20;;
33740;SDS011;20065;48.380;10.892;2023-03-16T00:33:34;11.07;;;7.60;;
33740;SDS011;20065;48.380;10.892;2023-03-16T00:36:24;9.98;;;7.35;;
33740;SDS011;20065;48.380;10.892;2023-03-16T00:39:13;9.93;;;7.43;;
33740;SDS011;20065;48.380;10.892;2023-03-16T00:41:59;11.10;;;6.93;;
33740;SDS011;20065;48.380;10.892;2023-03-16T00:44:46;13.63;;;7.72;;
33740;SDS011;20065;48.380;10.892;2023-03-16T00:47:35;11.27;;;7.60;;
33740;SDS011;20065;48.380;10.892;2023-03-16T00:50:21;13.18;;;8.10;;
33740;SDS011;20065;48.380;10.892;2023-03-16T00:53:07;9.90;;;6.90;;
33740;SDS011;20065;48.380;10.892;2023-03-16T00:55:56;10.90;;;7.40;;
33740;SDS011;20065;48.380;10.892;2023-03-16T00:58:43;14.52;;;8.43;;
33740;SDS011;20065;48.380;10.892;2023-03-16T01:01:30;9.73;;;7.47;;
33740;SDS011;20065;48.380;10.892;2023-03-16T01:04:19;10.80;;;7.57;;
33740;SDS011;20065;48.380;10.892;2023-03-16T01:07:07;13.70;;;8.23;;
33740;SDS011;20065;48.380;10.892;2023-03-16T01:09:56;13.73;;;7.88;;
33740;SDS011;20065;48.380;10.892;2023-03-16T01:12:42;10.23;;;6.45;;
33740;SDS011;20065;48.380;10.892;2023-03-16T01:15:34;12.13;;;7.05;;
33740;SDS011;20065;48.380;10.892;2023-03-16T01:18:24;14.07;;;7.50;;
33740;SDS011;20065;48.380;10.892;2023-03-16T01:21:10;10.18;;;6.90;;
33740;SDS011;20065;48.380;10.892;2023-03-16T01:23:59;13.40;;;7.25;;
33740;SDS011;20065;48.380;10.892;2023-03-16T01:26:49;9.32;;;6.20;;
33740;SDS011;20065;48.380;10.892;2023-03-16T01:29:35;10.32;;;6.70;;
33740;SDS011;20065;48.380;10.892;2023-03-16T01:32:32;10.13;;;7.35;;
33740;SDS011;20065;48.380;10.892;2023-03-16T01:36:03;10.93;;;7.07;;
33740;SDS011;20065;48.380;10.892;2023-03-16T01:39:23;10.93;;;7.05;;
33740;SDS011;20065;48.380;10.892;2023-03-16T01:42:10;12.75;;;7.72;;
33740;SDS011;20065;48.380;10.892;2023-03-16T01:44:57;11.13;;;7.57;;
33740;SDS011;20065;48.380;10.892;2023-03-16T01:47:55;13.35;;;8.25;;
33740;SDS011;20065;48.380;10.892;2023-03-16T01:50:43;12.70;;;7.72;;
33740;SDS011;20065;48.380;10.892;2023-03-16T01:53:30;13.80;;;8.57;;
33740;SDS011;20065;48.380;10.892;2023-03-16T01:56:19;14.75;;;9.38;;
33740;SDS011;20065;48.380;10.892;2023-03-16T01:59:13;14.02;;;9.38;;
33740;SDS011;20065;48.380;10.892;2023-03-16T02:02:01;12.88;;;8.52;;
33740;SDS011;20065;48.380;10.892;2023-03-16T02:04:59;14.63;;;9.70;;
33740;SDS011;20065;48.380;10.892;2023-03-16T02:07:49;15.43;;;9.82;;
33740;SDS011;20065;48.380;10.892;2023-03-16T02:10:42;17.63;;;9.65;;
33740;SDS011;20065;48.380;10.892;2023-03-16T02:13:30;14.65;;;9.40;;
33740;SDS011;20065;48.380;10.892;2023-03-16T02:16:21;17.23;;;9.90;;
33740;SDS011;20065;48.380;10.892;2023-03-16T02:19:11;16.73;;;9.95;;
33740;SDS011;20065;48.380;10.892;2023-03-16T02:22:05;15.00;;;9.95;;
33740;SDS011;20065;48.380;10.892;2023-03-16T02:24:53;16.58;;;10.07;;
33740;SDS011;20065;48.380;10.892;2023-03-16T02:27:52;18.63;;;10.57;;
33740;SDS011;20065;48.380;10.892;2023-03-16T02:31:06;16.88;;;10.10;;
33740;SDS011;20065;48.380;10.892;2023-03-16T02:33:57;17.40;;;10.45;;
33740;SDS011;20065;48.380;10.892;2023-03-16T02:36:44;14.75;;;9.60;;
33740;SDS011;20065;48.380;10.892;2023-03-16T02:39:36;16.25;;;9.80;;
33740;SDS011;20065;48.380;10.892;2023-03-16T02:42:22;16.63;;;10.93;;
33740;SDS011;20065;48.380;10.892;2023-03-16T02:45:14;14.88;;;10.70;;
33740;SDS011;20065;48.380;10.892;2023-03-16T02:48:01;12.55;;;9.00;;
33740;SDS011;20065;48.380;10.892;2023-03-16T02:50:54;15.98;;;9.90;;
33740;SDS011;20065;48.380;10.892;2023-03-16T02:53:40;15.48;;;10.25;;
33740;SDS011;20065;48.380;10.892;2023-03-16T02:56:26;18.38;;;10.13;;
33740;SDS011;20065;48.380;10.892;2023-03-16T02:59:12;14.57;;;9.80;;
33740;SDS011;20065;48.380;10.892;2023-03-16T03:01:59;21.42;;;10.45;;
33740;SDS011;20065;48.380;10.892;2023-03-16T03:04:45;17.17;;;10.65;;
33740;SDS011;20065;48.380;10.892;2023-03-16T03:07:32;19.13;;;11.48;;
33740;SDS011;20065;48.380;10.892;2023-03-16T03:10:22;15.90;;;11.48;;
33740;SDS011;20065;48.380;10.892;2023-03-16T03:13:09;16.05;;;10.27;;
33740;SDS011;20065;48.380;10.892;2023-03-16T03:15:57;17.08;;;10.30;;
33740;SDS011;20065;48.380;10.892;2023-03-16T03:18:46;16.00;;;10.50;;
33740;SDS011;20065;48.380;10.892;2023-03-16T03:21:33;14.55;;;10.25;;
33740;SDS011;20065;48.380;10.892;2023-03-16T03:24:19;16.60;;;10.93;;
33740;SDS011;20065;48.380;10.892;2023-03-16T03:27:06;14.77;;;10.60;;
33740;SDS011;20065;48.380;10.892;2023-03-16T03:29:55;18.80;;;10.85;;
33740;SDS011;20065;48.380;10.892;2023-03-16T03:32:42;14.95;;;11.02;;
33740;SDS011;20065;48.380;10.892;2023-03-16T03:35:28;14.70;;;10.93;;
33740;SDS011;20065;48.380;10.892;2023-03-16T03:38:14;16.67;;;11.43;;
33740;SDS011;20065;48.380;10.892;2023-03-16T03:41:03;16.55;;;10.00;;
33740;SDS011;20065;48.380;10.892;2023-03-16T03:43:53;16.40;;;10.77;;
33740;SDS011;20065;48.380;10.892;2023-03-16T03:46:39;15.50;;;10.35;;
33740;SDS011;20065;48.380;10.892;2023-03-16T03:49:25;17.40;;;10.35;;
33740;SDS011;20065;48.380;10.892;2023-03-16T03:52:12;17.10;;;10.02;;
33740;SDS011;20065;48.380;10.892;2023-03-16T03:54:58;20.83;;;11.80;;
33740;SDS011;20065;48.380;10.892;2023-03-16T03:57:44;19.05;;;10.88;;
33740;SDS011;20065;48.380;10.892;2023-03-16T04:00:30;19.25;;;11.32;;
33740;SDS011;20065;48.380;10.892;2023-03-16T04:03:17;16.05;;;10.82;;
33740;SDS011;20065;48.380;10.892;2023-03-16T04:06:04;18.08;;;11.40;;
33740;SDS011;20065;48.380;10.892;2023-03-16T04:08:52;19.08;;;11.63;;
33740;SDS011;20065;48.380;10.892;2023-03-16T04:11:44;18.58;;;11.10;;
33740;SDS011;20065;48.380;10.892;2023-03-16T04:14:31;18.73;;;11.68;;
33740;SDS011;20065;48.380;10.892;2023-03-16T04:17:20;20.58;;;11.18;;
33740;SDS011;20065;48.380;10.892;2023-03-16T04:20:08;18.10;;;11.82;;
33740;SDS011;20065;48.380;10.892;2023-03-16T04:23:00;20.00;;;13.00;;
33740;SDS011;20065;48.380;10.892;2023-03-16T04:25:48;20.85;;;13.80;;
33740;SDS011;20065;48.380;10.892;2023-03-16T04:28:38;19.67;;;12.75;;
33740;SDS011;20065;48.380;10.892;2023-03-16T04:31:27;20.20;;;12.55;;
33740;SDS011;20065;48.380;10.892;2023-03-16T04:34:14;19.52;;;12.90;;
33740;SDS011;20065;48.380;10.892;2023-03-16T04:37:00;19.98;;;12.32;;
33740;SDS011;20065;48.380;10.892;2023-03-16T04:39:47;19.77;;;12.77;;
33740;SDS011;20065;48.380;10.892;2023-03-16T04:42:34;20.98;;;12.60;;
33740;SDS011;20065;48.380;10.892;2023-03-16T04:45:20;23.42;;;13.93;;
33740;SDS011;20065;48.380;10.892;2023-03-16T04:48:10;24.13;;;13.45;;
33740;SDS011;20065;48.380;10.892;2023-03-16T04:50:57;24.40;;;13.45;;
33740;SDS011;20065;48.380;10.892;2023-03-16T04:53:47;21.63;;;13.48;;
33740;SDS011;20065;48.380;10.892;2023-03-16T04:56:43;21.10;;;13.80;;
33740;SDS011;20065;48.380;10.892;2023-03-16T04:59:42;24.60;;;14.07;;
33740;SDS011;20065;48.380;10.892;2023-03-16T05:02:39;20.08;;;13.30;;
33740;SDS011;20065;48.380;10.892;2023-03-16T05:05:26;23.73;;;14.30;;
33740;SDS011;20065;48.380;10.892;2023-03-16T05:08:12;26.35;;;13.50;;
33740;SDS011;20065;48.380;10.892;2023-03-16T05:11:01;24.92;;;15.20;;
33740;SDS011;20065;48.380;10.892;2023-03-16T05:13:51;18.23;;;12.38;;
33740;SDS011;20065;48.380;10.892;2023-03-16T05:16:38;21.42;;;13.20;;
33740;SDS011;20065;48.380;10.892;2023-03-16T05:19:26;22.17;;;13.88;;
33740;SDS011;20065;48.380;10.892;2023-03-16T05:22:13;20.70;;;13.52;;
33740;SDS011;20065;48.380;10.892;2023-03-16T05:25:16;20.10;;;13.40;;
33740;SDS011;20065;48.380;10.892;2023-03-16T05:28:06;20.85;;;12.18;;
33740;SDS011;20065;48.380;10.892;2023-03-16T05:31:07;23.45;;;15.07;;
33740;SDS011;20065;48.380;10.892;2023-03-16T05:33:59;20.08;;;13.07;;
33740;SDS011;20065;48.380;10.892;2023-03-16T05:36:47;23.02;;;13.65;;
33740;SDS011;20065;48.380;10.892;2023-03-16T05:39:35;20.35;;;12.57;;
33740;SDS011;20065;48.380;10.892;2023-03-16T05:42:22;23.45;;;12.82;;
33740;SDS011;20065;48.380;10.892;2023-03-16T05:45:15;25.70;;;13.25;;
33740;SDS011;20065;48.380;10.892;2023-03-16T05:48:16;24.20;;;12.70;;
33740;SDS011;20065;48.380;10.892;2023-03-16T05:51:09;22.33;;;13.60;;
33740;SDS011;20065;48.380;10.892;2023-03-16T05:53:56;22.98;;;13.10;;
33740;SDS011;20065;48.380;10.892;2023-03-16T05:57:18;23.90;;;15.40;;
33740;SDS011;20065;48.380;10.892;2023-03-16T06:00:08;20.30;;;12.25;;
33740;SDS011;20065;48.380;10.892;2023-03-16T06:03:05;21.05;;;13.57;;
33740;SDS011;20065;48.380;10.892;2023-03-16T06:05:53;20.75;;;13.07;;
33740;SDS011;20065;48.380;10.892;2023-03-16T06:08:48;22.95;;;13.85;;
33740;SDS011;20065;48.380;10.892;2023-03-16T06:11:35;21.40;;;13.57;;
33740;SDS011;20065;48.380;10.892;2023-03-16T06:14:22;23.08;;;15.15;;
33740;SDS011;20065;48.380;10.892;2023-03-16T06:17:10;22.00;;;14.32;;
33740;SDS011;20065;48.380;10.892;2023-03-16T06:19:59;26.60;;;15.93;;
33740;SDS011;20065;48.380;10.892;2023-03-16T06:22:47;22.80;;;15.07;;
33740;SDS011;20065;48.380;10.892;2023-03-16T06:25:33;25.60;;;15.23;;
33740;SDS011;20065;48.380;10.892;2023-03-16T06:28:21;28.38;;;17.52;;
33740;SDS011;20065;48.380;10.892;2023-03-16T06:31:08;24.65;;;15.70;;
33740;SDS011;20065;48.380;10.892;2023-03-16T06:33:55;26.92;;;15.30;;
33740;SDS011;20065;48.380;10.892;2023-03-16T06:36:42;25.50;;;15.90;;
33740;SDS011;20065;48.380;10.892;2023-03-16T06:39:31;23.77;;;14.60;;
33740;SDS011;20065;48.380;10.892;2023-03-16T06:42:18;24.20;;;15.02;;
33740;SDS011;20065;48.380;10.892;2023-03-16T06:45:04;24.33;;;14.85;;
33740;SDS011;20065;48.380;10.892;2023-03-16T06:47:51;23.77;;;15.77;;
33740;SDS011;20065;48.380;10.892;2023-03-16T06:50:38;26.88;;;16.63;;
33740;SDS011;20065;48.380;10.892;2023-03-16T06:53:24;25.92;;;15.65;;
33740;SDS011;20065;48.380;10.892;2023-03-16T06:56:12;27.58;;;15.20;;
33740;SDS011;20065;48.380;10.892;2023-03-16T06:59:01;25.25;;;15.18;;
33740;SDS011;20065;48.380;10.892;2023-03-16T07:01:47;28.20;;;16.05;;
33740;SDS011;20065;48.380;10.892;2023-03-16T07:04:34;23.80;;;14.43;;
33740;SDS011;20065;48.380;10.892;2023-03-16T07:07:20;23.20;;;15.15;;
33740;SDS011;20065;48.380;10.892;2023-03-16T07:10:10;24.10;;;14.32;;
33740;SDS011;20065;48.380;10.892;2023-03-16T07:12:57;22.23;;;14.63;;
33740;SDS011;20065;48.380;10.892;2023-03-16T07:15:44;23.90;;;16.00;;
33740;SDS011;20065;48.380;10.892;2023-03-16T07:18:31;24.73;;;15.07;;
33740;SDS011;20065;48.380;10.892;2023-03-16T07:21:18;24.10;;;14.63;;
33740;SDS011;20065;48.380;10.892;2023-03-16T07:24:06;23.67;;;14.60;;
33740;SDS011;20065;48.380;10.892;2023-03-16T07:26:55;27.23;;;16.33;;
33740;SDS011;20065;48.380;10.892;2023-03-16T07:29:48;22.77;;;15.43;;
33740;SDS011;20065;48.380;10.892;2023-03-16T07:32:35;23.98;;;16.48;;
33740;SDS011;20065;48.380;10.892;2023-03-16T07:35:21;25.50;;;15.68;;
33740;SDS011;20065;48.380;10.892;2023-03-16T07:38:08;25.30;;;15.80;;
33740;SDS011;20065;48.380;10.892;2023-03-16T07:40:58;26.70;;;16.92;;
33740;SDS011;20065;48.380;10.892;2023-03-16T07:43:46;25.00;;;15.77;;
33740;SDS011;20065;48.380;10.892;2023-03-16T07:46:33;26.15;;;16.55;;
33740;SDS011;20065;48.380;10.892;2023-03-16T07:49:19;23.50;;;15.48;;
33740;SDS011;20065;48.380;10.892;2023-03-16T07:52:06;28.27;;;15.27;;
33740;SDS011;20065;48.380;10.892;2023-03-16T07:54:58;23.67;;;15.23;;
33740;SDS011;20065;48.380;10.892;2023-03-16T07:57:50;29.52;;;15.25;;
33740;SDS011;20065;48.380;10.892;2023-03-16T08:00:44;22.45;;;14.75;;
33740;SDS011;20065;48.380;10.892;2023-03-16T08:03:30;21.77;;;14.40;;
33740;SDS011;20065;48.380;10.892;2023-03-16T08:06:16;21.08;;;14.00;;
33740;SDS011;20065;48.380;10.892;2023-03-16T08:09:03;26.65;;;15.23;;
33740;SDS011;20065;48.380;10.892;2023-03-16T08:11:53;24.63;;;15.43;;
33740;SDS011;20065;48.380;10.892;2023-03-16T08:14:40;20.23;;;13.82;;
33740;SDS011;20065;48.380;10.892;2023-03-16T08:17:32;19.95;;;12.73;;
33740;SDS011;20065;48.380;10.892;2023-03-16T08:20:21;21.17;;;14.52;;
33740;SDS011;20065;48.380;10.892;2023-03-16T08:23:07;17.08;;;11.85;;
33740;SDS011;20065;48.380;10.892;2023-03-16T08:25:57;17.45;;;12.02;;
33740;SDS011;20065;48.380;10.892;2023-03-16T08:28:44;17.90;;;11.93;;
33740;SDS011;20065;48.380;10.892;2023-03-16T08:31:31;16.63;;;10.48;;
33740;SDS011;20065;48.380;10.892;2023-03-16T08:34:30;16.55;;;10.55;;
33740;SDS011;20065;48.380;10.892;2023-03-16T08:37:16;17.08;;;9.60;;
33740;SDS011;20065;48.380;10.892;2023-03-16T08:40:04;14.85;;;10.10;;
33740;SDS011;20065;48.380;10.892;2023-03-16T08:42:55;17.85;;;10.60;;
33740;SDS011;20065;48.380;10.892;2023-03-16T08:45:43;17.73;;;10.15;;
33740;SDS011;20065;48.380;10.892;2023-03-16T08:48:30;14.77;;;10.27;;
33740;SDS011;20065;48.380;10.892;2023-03-16T08:51:19;13.15;;;9.25;;
33740;SDS011;20065;48.380;10.892;2023-03-16T08:54:05;15.45;;;9.38;;
33740;SDS011;20065;48.380;10.892;2023-03-16T08:56:53;14.30;;;9.73;;
33740;SDS011;20065;48.380;10.892;2023-03-16T08:59:40;12.15;;;8.82;;
33740;SDS011;20065;48.380;10.892;2023-03-16T09:02:26;15.13;;;9.30;;
33740;SDS011;20065;48.380;10.892;2023-03-16T09:05:12;16.00;;;9.25;;
33740;SDS011;20065;48.380;10.892;2023-03-16T09:08:00;13.93;;;9.80;;
33740;SDS011;20065;48.380;10.892;2023-03-16T09:10:48;13.80;;;8.30;;
33740;SDS011;20065;48.380;10.892;2023-03-16T09:13:36;14.82;;;9.02;;
33740;SDS011;20065;48.380;10.892;2023-03-16T09:16:23;14.27;;;9.88;;
33740;SDS011;20065;48.380;10.892;2023-03-16T09:19:10;16.42;;;9.05;;
33740;SDS011;20065;48.380;10.892;2023-03-16T09:21:56;12.18;;;8.60;;
33740;SDS011;20065;48.380;10.892;2023-03-16T09:24:42;14.73;;;8.60;;
33740;SDS011;20065;48.380;10.892;2023-03-16T09:27:28;12.55;;;8.70;;
33740;SDS011;20065;48.380;10.892;2023-03-16T09:30:15;12.88;;;8.65;;
33740;SDS011;20065;48.380;10.892;2023-03-16T09:33:01;13.35;;;9.50;;
33740;SDS011;20065;48.380;10.892;2023-03-16T09:35:48;13.25;;;8.45;;
33740;SDS011;20065;48.380;10.892;2023-03-16T09:38:36;15.40;;;9.82;;
33740;SDS011;20065;48.380;10.892;2023-03-16T09:47:25;12.75;;;9.55;;
33740;SDS011;20065;48.380;10.892;2023-03-16T09:50:19;11.82;;;9.38;;
33740;SDS011;20065;48.380;10.892;2023-03-16T09:56:19;15.98;;;9.85;;
33740;SDS011;20065;48.380;10.892;2023-03-16T09:59:13;11.85;;;8.27;;
33740;SDS011;20065;48.380;10.892;2023-03-16T10:05:08;14.88;;;8.68;;
33740;SDS011;20065;48.380;10.892;2023-03-16T10:08:14;13.70;;;8.27;;
33740;SDS011;20065;48.380;10.892;2023-03-16T10:17:24;12.80;;;8.70;;
33740;SDS011;20065;48.380;10.892;2023-03-16T10:20:21;10.67;;;7.47;;
33740;SDS011;20065;48.380;10.892;2023-03-16T10:23:19;11.30;;;6.73;;
33740;SDS011;20065;48.380;10.892;2023-03-16T10:26:24;10.63;;;7.00;;
33740;SDS011;20065;48.380;10.892;2023-03-16T10:29:15;10.93;;;6.50;;
33740;SDS011;20065;48.380;10.892;2023-03-16T10:32:12;9.67;;;7.33;;
33740;SDS011;20065;48.380;10.892;2023-03-16T10:35:15;11.30;;;8.00;;
33740;SDS011;20065;48.380;10.892;2023-03-16T10:38:08;12.63;;;7.97;;
33740;SDS011;20065;48.380;10.892;2023-03-16T10:44:13;11.37;;;6.13;;
33740;SDS011;20065;48.380;10.892;2023-03-16T10:47:02;8.70;;;6.30;;
33740;SDS011;20065;48.380;10.892;2023-03-16T10:49:50;9.63;;;7.47;;
33740;SDS011;20065;48.380;10.892;2023-03-16T10:52:39;9.27;;;7.57;;
33740;SDS011;20065;48.380;10.892;2023-03-16T10:55:30;8.10;;;6.17;;
33740;SDS011;20065;48.380;10.892;2023-03-16T10:58:28;8.73;;;6.47;;
33740;SDS011;20065;48.380;10.892;2023-03-16T11:01:25;10.27;;;6.80;;
33740;SDS011;20065;48.380;10.892;2023-03-16T11:04:13;9.90;;;6.10;;
33740;SDS011;20065;48.380;10.892;2023-03-16T11:07:02;8.87;;;6.23;;
33740;SDS011;20065;48.380;10.892;2023-03-16T11:09:53;8.70;;;5.77;;
33740;SDS011;20065;48.380;10.892;2023-03-16T11:12:40;7.60;;;4.90;;
33740;SDS011;20065;48.380;10.892;2023-03-16T11:15:26;7.20;;;4.40;;
33740;SDS011;20065;48.380;10.892;2023-03-16T11:18:47;8.23;;;5.30;;
33740;SDS011;20065;48.380;10.892;2023-03-16T11:21:38;7.30;;;5.03;;
33740;SDS011;20065;48.380;10.892;2023-03-16T11:27:43;6.80;;;4.60;;
33740;SDS011;20065;48.380;10.892;2023-03-16T11:33:24;5.80;;;3.90;;
33740;SDS011;20065;48.380;10.892;2023-03-16T11:36:28;7.23;;;4.80;;
33740;SDS011;20065;48.380;10.892;2023-03-16T11:39:38;6.33;;;4.30;;
33740;SDS011;20065;48.380;10.892;2023-03-16T11:48:21;7.20;;;4.50;;
33740;SDS011;20065;48.380;10.892;2023-03-16T12:01:19;6.93;;;3.50;;
33740;SDS011;20065;48.380;10.892;2023-03-16T12:04:18;7.50;;;4.07;;
33740;SDS011;20065;48.380;10.892;2023-03-16T12:17:00;6.70;;;4.20;;
33740;SDS011;20065;48.380;10.892;2023-03-16T12:20:06;6.57;;;4.10;;
33740;SDS011;20065;48.380;10.892;2023-03-16T12:23:17;7.13;;;4.50;;
33740;SDS011;20065;48.380;10.892;2023-03-16T12:26:16;5.93;;;3.80;;
33740;SDS011;20065;48.380;10.892;2023-03-16T12:29:06;5.73;;;3.70;;
33740;SDS011;20065;48.380;10.892;2023-03-16T12:32:11;6.50;;;3.60;;
33740;SDS011;20065;48.380;10.892;2023-03-16T12:35:26;5.70;;;2.97;;
33740;SDS011;20065;48.380;10.892;2023-03-16T12:38:24;5.30;;;3.67;;
33740;SDS011;20065;48.380;10.892;2023-03-16T12:41:30;3.90;;;2.77;;
33740;SDS011;20065;48.380;10.892;2023-03-16T12:50:50;5.37;;;3.33;;
33740;SDS011;20065;48.380;10.892;2023-03-16T12:53:41;7.03;;;3.80;;
33740;SDS011;20065;48.380;10.892;2023-03-16T12:56:31;6.50;;;3.83;;
33740;SDS011;20065;48.380;10.892;2023-03-16T12:59:21;6.50;;;3.50;;
33740;SDS011;20065;48.380;10.892;2023-03-16T13:02:13;9.50;;;4.33;;
33740;SDS011;20065;48.380;10.892;2023-03-16T13:05:13;5.80;;;3.60;;
33740;SDS011;20065;48.380;10.892;2023-03-16T13:08:15;6.20;;;3.80;;
33740;SDS011;20065;48.380;10.892;2023-03-16T13:11:04;6.00;;;3.80;;
33740;SDS011;20065;48.380;10.892;2023-03-16T13:16:47;7.80;;;4.63;;
33740;SDS011;20065;48.380;10.892;2023-03-16T13:19:34;7.53;;;4.20;;
33740;SDS011;20065;48.380;10.892;2023-03-16T13:22:26;6.93;;;3.80;;
33740;SDS011;20065;48.380;10.892;2023-03-16T13:28:04;6.73;;;3.90;;
33740;SDS011;20065;48.380;10.892;2023-03-16T13:30:55;5.57;;;3.57;;
33740;SDS011;20065;48.380;10.892;2023-03-16T13:33:41;6.43;;;3.37;;
33740;SDS011;20065;48.380;10.892;2023-03-16T13:36:28;7.27;;;4.07;;
33740;SDS011;20065;48.380;10.892;2023-03-16T13:39:16;5.63;;;3.37;;
33740;SDS011;20065;48.380;10.892;2023-03-16T13:45:10;4.63;;;3.33;;
33740;SDS011;20065;48.380;10.892;2023-03-16T13:47:59;7.00;;;3.90;;
33740;SDS011;20065;48.380;10.892;2023-03-16T13:50:54;6.00;;;3.97;;
33740;SDS011;20065;48.380;10.892;2023-03-16T13:53:44;9.40;;;3.70;;
33740;SDS011;20065;48.380;10.892;2023-03-16T13:56:31;6.47;;;3.97;;
33740;SDS011;20065;48.380;10.892;2023-03-16T13:59:19;7.40;;;4.43;;
33740;SDS011;20065;48.380;10.892;2023-03-16T14:02:14;6.70;;;4.17;;
33740;SDS011;20065;48.380;10.892;2023-03-16T14:05:10;5.87;;;4.20;;
33740;SDS011;20065;48.380;10.892;2023-03-16T14:08:01;4.80;;;3.40;;
33740;SDS011;20065;48.380;10.892;2023-03-16T14:10:50;8.90;;;3.97;;
33740;SDS011;20065;48.380;10.892;2023-03-16T14:13:38;6.83;;;4.07;;
33740;SDS011;20065;48.380;10.892;2023-03-16T14:16:26;5.43;;;3.87;;
33740;SDS011;20065;48.380;10.892;2023-03-16T14:19:19;7.50;;;4.40;;
33740;SDS011;20065;48.380;10.892;2023-03-16T14:22:10;8.47;;;4.27;;
33740;SDS011;20065;48.380;10.892;2023-03-16T14:24:58;6.37;;;3.90;;
33740;SDS011;20065;48.380;10.892;2023-03-16T14:27:45;7.03;;;4.00;;
33740;SDS011;20065;48.380;10.892;2023-03-16T14:30:32;6.73;;;4.10;;
33740;SDS011;20065;48.380;10.892;2023-03-16T14:33:31;7.13;;;4.30;;
33740;SDS011;20065;48.380;10.892;2023-03-16T14:36:19;9.27;;;4.47;;
33740;SDS011;20065;48.380;10.892;2023-03-16T14:39:10;6.27;;;3.90;;
33740;SDS011;20065;48.380;10.892;2023-03-16T14:42:00;7.67;;;3.97;;
33740;SDS011;20065;48.380;10.892;2023-03-16T14:44:48;7.35;;;4.07;;
33740;SDS011;20065;48.380;10.892;2023-03-16T14:47:40;5.53;;;3.65;;
33740;SDS011;20065;48.380;10.892;2023-03-16T14:50:28;5.47;;;3.40;;
33740;SDS011;20065;48.380;10.892;2023-03-16T14:53:16;7.60;;;4.40;;
33740;SDS011;20065;48.380;10.892;2023-03-16T14:56:02;8.27;;;3.80;;
33740;SDS011;20065;48.380;10.892;2023-03-16T14:58:49;6.32;;;3.90;;
33740;SDS011;20065;48.380;10.892;2023-03-16T15:01:35;6.85;;;4.57;;
33740;SDS011;20065;48.380;10.892;2023-03-16T15:04:32;5.87;;;3.77;;
33740;SDS011;20065;48.380;10.892;2023-03-16T15:10:23;5.65;;;3.35;;
33740;SDS011;20065;48.380;10.892;2023-03-16T15:13:13;7.50;;;3.75;;
33740;SDS011;20065;48.380;10.892;2023-03-16T15:16:19;6.67;;;4.30;;
33740;SDS011;20065;48.380;10.892;2023-03-16T15:19:07;6.87;;;4.83;;
33740;SDS011;20065;48.380;10.892;2023-03-16T15:21:54;8.73;;;4.53;;
33740;SDS011;20065;48.380;10.892;2023-03-16T15:24:41;6.35;;;4.00;;
33740;SDS011;20065;48.380;10.892;2023-03-16T15:27:29;5.30;;;3.58;;
33740;SDS011;20065;48.380;10.892;2023-03-16T15:30:21;7.00;;;4.57;;
33740;SDS011;20065;48.380;10.892;2023-03-16T15:33:11;6.03;;;3.80;;
33740;SDS011;20065;48.380;10.892;2023-03-16T15:35:58;8.33;;;4.10;;
33740;SDS011;20065;48.380;10.892;2023-03-16T15:38:50;6.30;;;3.70;;
33740;SDS011;20065;48.380;10.892;2023-03-16T15:41:38;7.78;;;4.20;;
33740;SDS011;20065;48.380;10.892;2023-03-16T15:44:25;7.35;;;4.05;;
33740;SDS011;20065;48.380;10.892;2023-03-16T15:47:11;5.90;;;4.33;;
33740;SDS011;20065;48.380;10.892;2023-03-16T15:49:58;7.30;;;3.90;;
33740;SDS011;20065;48.380;10.892;2023-03-16T15:52:45;6.43;;;4.73;;
33740;SDS011;20065;48.380;10.892;2023-03-16T15:55:36;9.73;;;4.43;;
33740;SDS011;20065;48.380;10.892;2023-03-16T15:58:25;7.80;;;4.30;;
33740;SDS011;20065;48.380;10.892;2023-03-16T16:01:29;6.50;;;5.03;;
33740;SDS011;20065;48.380;10.892;2023-03-16T16:04:20;5.90;;;3.70;;
33740;SDS011;20065;48.380;10.892;2023-03-16T16:07:09;7.40;;;4.07;;
33740;SDS011;20065;48.380;10.892;2023-03-16T16:09:57;9.57;;;4.70;;
33740;SDS011;20065;48.380;10.892;2023-03-16T16:12:43;6.83;;;3.97;;
33740;SDS011;20065;48.380;10.892;2023-03-16T16:15:35;11.80;;;4.70;;
33740;SDS011;20065;48.380;10.892;2023-03-16T16:18:32;7.37;;;4.20;;
33740;SDS011;20065;48.380;10.892;2023-03-16T16:21:25;7.40;;;4.25;;
33740;SDS011;20065;48.380;10.892;2023-03-16T16:24:15;6.25;;;4.30;;
33740;SDS011;20065;48.380;10.892;2023-03-16T16:27:02;8.63;;;4.95;;
33740;SDS011;20065;48.380;10.892;2023-03-16T16:29:50;7.40;;;4.38;;
33740;SDS011;20065;48.380;10.892;2023-03-16T16:32:36;8.05;;;4.45;;
33740;SDS011;20065;48.380;10.892;2023-03-16T16:35:26;7.15;;;4.50;;
33740;SDS011;20065;48.380;10.892;2023-03-16T16:38:12;7.88;;;4.38;;
33740;SDS011;20065;48.380;10.892;2023-03-16T16:41:00;6.55;;;4.10;;
33740;SDS011;20065;48.380;10.892;2023-03-16T16:43:47;8.43;;;3.90;;
33740;SDS011;20065;48.380;10.892;2023-03-16T16:46:37;8.93;;;4.35;;
33740;SDS011;20065;48.380;10.892;2023-03-16T16:49:26;6.45;;;4.10;;
33740;SDS011;20065;48.380;10.892;2023-03-16T16:52:15;13.55;;;4.70;;
33740;SDS011;20065;48.380;10.892;2023-03-16T16:55:05;6.47;;;4.18;;
33740;SDS011;20065;48.380;10.892;2023-03-16T16:57:51;10.45;;;4.32;;
33740;SDS011;20065;48.380;10.892;2023-03-16T17:00:39;7.70;;;4.10;;
33740;SDS011;20065;48.380;10.892;2023-03-16T17:03:27;8.07;;;4.63;;
33740;SDS011;20065;48.380;10.892;2023-03-16T17:06:15;6.68;;;4.13;;
33740;SDS011;20065;48.380;10.892;2023-03-16T17:09:02;7.38;;;4.30;;
33740;SDS011;20065;48.380;10.892;2023-03-16T17:11:49;8.20;;;4.50;;
33740;SDS011;20065;48.380;10.892;2023-03-16T17:14:48;7.53;;;4.45;;
33740;SDS011;20065;48.380;10.892;2023-03-16T17:17:35;9.65;;;5.40;;
33740;SDS011;20065;48.380;10.892;2023-03-16T17:20:21;9.85;;;5.63;;
33740;SDS011;20065;48.380;10.892;2023-03-16T17:23:24;10.07;;;5.45;;
33740;SDS011;20065;48.380;10.892;2023-03-16T17:26:18;8.32;;;5.80;;
33740;SDS011;20065;48.380;10.892;2023-03-16T17:32:01;11.43;;;6.60;;
33740;SDS011;20065;48.380;10.892;2023-03-16T17:34:52;11.25;;;6.60;;
33740;SDS011;20065;48.380;10.892;2023-03-16T17:37:39;10.20;;;6.10;;
33740;SDS011;20065;48.380;10.892;2023-03-16T17:40:25;10.20;;;6.53;;
33740;SDS011;20065;48.380;10.892;2023-03-16T17:43:15;9.15;;;6.03;;
33740;SDS011;20065;48.380;10.892;2023-03-16T17:46:03;11.23;;;6.45;;
33740;SDS011;20065;48.380;10.892;2023-03-16T17:48:51;11.13;;;6.38;;